Time;durP1;ratioP1;P1;durP2;ratioP2;P2;SDS_P1;SDS_P2;PMS_P1;PMS_P2;Temp;Humidity;BMP_temperature;BMP_pressure;BME280_temperature;BME280_humidity;BME280_pressure;Samples;Min_cycle;Max_cycle;Signal;HPM_P1;HPM_P2
2021/01/03 00:00:08;;;;;;;;;;;;;;;;;;5033329;28;19920;-59
2021/01/03 00:02:34;;;;;;;;;;;;;;;;;;5032529;28;19919;-58
2021/01/03 00:05:00;;;;;;;;;;;;;;;;;;5033331;28;19921;-58
2021/01/03 00:07:27;;;;;;;;;;;;;;;;;;5033229;28;19905;-58
2021/01/03 00:09:53;;;;;;;;;;;;;;;;;;5033302;28;19929;-60
2021/01/03 00:12:19;;;;;;;;;;;;;;;;;;5033283;28;19919;-60
2021/01/03 00:14:45;;;;;;;;;;;;;;;;;;5033376;28;19917;-60
2021/01/03 00:17:11;;;;;;;;;;;;;;;;;;5033565;28;20261;-59
2021/01/03 00:19:37;;;;;;;;;;;;;;;;;;5033125;28;20023;-60
2021/01/03 00:22:03;;;;;;;;;;;;;;;;;;5033180;28;19925;-60
2021/01/03 00:24:29;;;;;;;;;;;;;;;;;;5033494;28;19937;-60
2021/01/03 00:26:55;;;;;;;;;;;;;;;;;;5033179;28;20039;-59
2021/01/03 00:29:21;;;;;;;;;;;;;;;;;;5033056;28;19955;-60
2021/01/03 00:31:47;;;;;;;;;;;;;;;;;;5033066;28;19921;-60
2021/01/03 00:34:13;;;;;;;;;;;;;;;;;;5033084;28;19921;-60
2021/01/03 00:36:39;;;;;;;;;;;;;;;;;;5033158;28;20017;-59
2021/01/03 00:39:05;;;;;;;;;;;;;;;;;;5033077;28;19912;-60
2021/01/03 00:41:31;;;;;;;;;;;;;;;;;;5033075;28;19930;-60
2021/01/03 00:43:57;;;;;;;;;;;;;;;;;;5034261;28;19968;-60
2021/01/03 00:46:22;;;;;;;;;;;;;;;;;;5035309;28;19936;-60
2021/01/03 00:48:48;;;;;;;;;;;;;;;;;;5036668;28;20028;-60
2021/01/03 00:51:14;;;;;;;;;;;;;;;;;;5036429;28;20256;-60
2021/01/03 00:53:40;;;;;;;;;;;;;;;;;;5036262;28;19947;-60
2021/01/03 00:56:06;;;;;;;;;;;;;;;;;;5036599;28;19972;-60
2021/01/03 00:58:32;;;;;;;;;;;;;;;;;;5036543;28;20362;-60
2021/01/03 01:00:58;;;;;;;;;;;;;;;;;;5036245;28;19944;-60
2021/01/03 01:03:24;;;;;;;;;;;;;;;;;;5036193;28;19927;-60
2021/01/03 01:05:50;;;;;;;;;;;;;;;;;;5036354;28;19913;-60
2021/01/03 01:08:16;;;;;;;;;;;;;;;;;;5036146;28;19966;-60
2021/01/03 01:10:42;;;;;;;;;;;;;;;;;;5035987;28;20022;-61
2021/01/03 01:13:08;;;;;;;;;;;;;;;;;;5036107;28;19922;-60
2021/01/03 01:15:34;;;;;;;;;;;;;;;;;;5035897;28;19947;-60
2021/01/03 01:18:02;;;;;;;;;;;;;;;;;;5035996;28;19921;-59
2021/01/03 01:20:28;;;;;;;;;;;;;;;;;;5036186;28;19926;-60
2021/01/03 01:22:54;;;;;;;;;;;;;;;;;;5035829;28;19933;-60
2021/01/03 01:25:20;;;;;;;;;;;;;;;;;;5036234;28;19922;-60
2021/01/03 01:27:46;;;;;;;;;;;;;;;;;;5035887;28;19916;-60
2021/01/03 01:30:12;;;;;;;;;;;;;;;;;;5035750;28;19924;-59
2021/01/03 01:32:38;;;;;;;;;;;;;;;;;;5035779;28;19924;-60
2021/01/03 01:35:04;;;;;;;;;;;;;;;;;;5035822;28;19927;-61
2021/01/03 01:37:30;;;;;;;;;;;;;;;;;;5035570;28;19913;-60
2021/01/03 01:39:56;;;;;;;;;;;;;;;;;;5035717;28;19950;-60
2021/01/03 01:42:22;;;;;;;;;;;;;;;;;;5035522;28;19928;-60
2021/01/03 01:44:48;;;;;;;;;;;;;;;;;;5035754;28;20002;-60
2021/01/03 01:47:14;;;;;;;;;;;;;;;;;;5035226;28;19921;-60
2021/01/03 01:49:39;;;;;;;;;;;;;;;;;;5035374;28;19926;-60
2021/01/03 01:52:05;;;;;;;;;;;;;;;;;;5035278;28;20006;-60
2021/01/03 01:54:31;;;;;;;;;;;;;;;;;;5034801;28;20425;-61
2021/01/03 01:56:57;;;;;;;;;;;;;;;;;;5035183;28;19923;-60
2021/01/03 01:59:23;;;;;;;;;;;;;;;;;;5035193;28;19995;-61
2021/01/03 02:01:49;;;;;;;;;;;;;;;;;;5035070;28;19928;-61
2021/01/03 02:04:15;;;;;;;;;;;;;;;;;;5035016;28;20319;-61
2021/01/03 02:06:41;;;;;;;;;;;;;;;;;;5035206;28;19924;-61
2021/01/03 02:09:07;;;;;;;;;;;;;;;;;;5035204;28;20278;-61
2021/01/03 02:11:33;;;;;;;;;;;;;;;;;;5034809;28;19925;-61
2021/01/03 02:13:59;;;;;;;;;;;;;;;;;;5034996;28;19957;-61
2021/01/03 02:16:25;;;;;;;;;;;;;;;;;;5034806;28;19948;-60
2021/01/03 02:18:51;;;;;;;;;;;;;;;;;;5034797;28;20301;-60
2021/01/03 02:21:17;;;;;;;;;;;;;;;;;;5034930;28;19926;-61
2021/01/03 02:23:43;;;;;;;;;;;;;;;;;;5034592;28;20420;-60
2021/01/03 02:26:09;;;;;;;;;;;;;;;;;;5034868;28;19905;-63
2021/01/03 02:28:35;;;;;;;;;;;;;;;;;;5033323;28;19952;-60
2021/01/03 02:31:01;;;;;;;;;;;;;;;;;;5034402;28;19905;-60
2021/01/03 02:33:27;;;;;;;;;;;;;;;;;;5034806;28;19929;-60
2021/01/03 02:35:53;;;;;;;;;;;;;;;;;;5034470;28;19919;-61
2021/01/03 02:38:19;;;;;;;;;;;;;;;;;;5034676;28;19920;-60
2021/01/03 02:40:45;;;;;;;;;;;;;;;;;;5034464;28;19959;-61
2021/01/03 02:43:11;;;;;;;;;;;;;;;;;;5034277;28;19924;-61
2021/01/03 02:45:37;;;;;;;;;;;;;;;;;;5034572;28;19921;-61
2021/01/03 02:48:03;;;;;;;;;;;;;;;;;;5034050;28;19970;-61
2021/01/03 02:50:29;;;;;;;;;;;;;;;;;;5034891;28;19923;-61
2021/01/03 02:52:55;;;;;;;;;;;;;;;;;;5034397;28;19920;-61
2021/01/03 02:55:21;;;;;;;;;;;;;;;;;;5033811;28;20402;-61
2021/01/03 02:57:47;;;;;;;;;;;;;;;;;;5034069;28;20021;-61
2021/01/03 03:00:13;;;;;;;;;;;;;;;;;;5034372;28;19909;-60
2021/01/03 03:02:39;;;;;;;;;;;;;;;;;;5033933;28;19945;-60
2021/01/03 03:05:05;;;;;;;;;;;;;;;;;;5034608;28;19950;-61
2021/01/03 03:07:31;;;;;;;;;;;;;;;;;;5033407;28;20367;-60
2021/01/03 03:09:56;;;;;;;;;;;;;;;;;;5034026;28;20297;-60
2021/01/03 03:12:23;;;;;;;;;;;;;;;;;;5033945;28;19945;-60
2021/01/03 03:14:49;;;;;;;;;;;;;;;;;;5033921;28;19968;-59
2021/01/03 03:17:14;;;;;;;;;;;;;;;;;;5033813;28;19948;-60
2021/01/03 03:19:40;;;;;;;;;;;;;;;;;;5033991;28;19918;-60
2021/01/03 03:22:06;;;;;;;;;;;;;;;;;;5033936;28;20295;-61
2021/01/03 03:24:32;;;;;;;;;;;;;;;;;;5034123;28;19944;-61
2021/01/03 03:26:58;;;;;;;;;;;;;;;;;;5033977;28;20290;-60
2021/01/03 03:29:24;;;;;;;;;;;;;;;;;;5033931;28;19947;-60
2021/01/03 03:31:50;;;;;;;;;;;;;;;;;;5033655;28;19986;-61
2021/01/03 03:34:16;;;;;;;;;;;;;;;;;;5033705;28;19920;-61
2021/01/03 03:36:42;;;;;;;;;;;;;;;;;;5034375;28;19925;-60
2021/01/03 03:39:08;;;;;;;;;;;;;;;;;;5033602;28;19931;-60
2021/01/03 03:41:34;;;;;;;;;;;;;;;;;;5033667;28;19919;-60
2021/01/03 03:44:00;;;;;;;;;;;;;;;;;;5033739;28;20019;-60
2021/01/03 03:46:26;;;;;;;;;;;;;;;;;;5033871;28;20016;-60
2021/01/03 03:48:52;;;;;;;;;;;;;;;;;;5033692;28;20043;-60
2021/01/03 03:51:18;;;;;;;;;;;;;;;;;;5033523;28;20333;-60
2021/01/03 03:53:44;;;;;;;;;;;;;;;;;;5033231;28;19947;-60
2021/01/03 03:56:10;;;;;;;;;;;;;;;;;;5033834;28;19929;-61
2021/01/03 03:58:36;;;;;;;;;;;;;;;;;;5033372;28;20273;-61
2021/01/03 04:01:02;;;;;;;;;;;;;;;;;;5033762;28;19928;-61
2021/01/03 04:03:28;;;;;;;;;;;;;;;;;;5033288;28;20344;-61
2021/01/03 04:05:54;;;;;;;;;;;;;;;;;;5033690;28;19923;-61
2021/01/03 04:08:20;;;;;;;;;;;;;;;;;;5033279;28;20454;-61
2021/01/03 04:10:46;;;;;;;;;;;;;;;;;;5033503;28;19987;-61
2021/01/03 04:13:12;;;;;;;;;;;;;;;;;;5033402;28;19920;-61
2021/01/03 04:15:38;;;;;;;;;;;;;;;;;;5033303;28;19945;-61
2021/01/03 04:18:04;;;;;;;;;;;;;;;;;;5034809;28;19926;-61
2021/01/03 04:20:30;;;;;;;;;;;;;;;;;;5037430;28;19921;-61
2021/01/03 04:22:55;;;;;;;;;;;;;;;;;;5037241;28;19944;-61
2021/01/03 04:25:21;;;;;;;;;;;;;;;;;;5036914;28;20384;-61
2021/01/03 04:27:47;;;;;;;;;;;;;;;;;;5036815;28;19939;-60
2021/01/03 04:30:13;;;;;;;;;;;;;;;;;;5036822;28;19921;-60
2021/01/03 04:32:39;;;;;;;;;;;;;;;;;;5037182;28;19923;-61
2021/01/03 04:35:05;;;;;;;;;;;;;;;;;;5036748;28;19917;-60
2021/01/03 04:37:31;;;;;;;;;;;;;;;;;;5036681;28;19924;-61
2021/01/03 04:39:57;;;;;;;;;;;;;;;;;;5036631;28;19913;-61
2021/01/03 04:42:23;;;;;;;;;;;;;;;;;;5036664;28;19920;-61
2021/01/03 04:44:49;;;;;;;;;;;;;;;;;;5035273;28;19991;-60
2021/01/03 04:47:15;;;;;;;;;;;;;;;;;;5036885;28;19923;-61
2021/01/03 04:49:41;;;;;;;;;;;;;;;;;;5036331;28;20387;-61
2021/01/03 04:52:07;;;;;;;;;;;;;;;;;;5036719;28;19921;-61
2021/01/03 04:54:33;;;;;;;;;;;;;;;;;;5036371;28;20298;-61
2021/01/03 04:56:59;;;;;;;;;;;;;;;;;;5036398;28;20022;-61
2021/01/03 04:59:25;;;;;;;;;;;;;;;;;;5036472;28;19926;-61
2021/01/03 05:01:51;;;;;;;;;;;;;;;;;;5036425;28;20391;-61
2021/01/03 05:04:17;;;;;;;;;;;;;;;;;;5036476;28;19921;-61
2021/01/03 05:06:43;;;;;;;;;;;;;;;;;;5036254;28;20493;-61
2021/01/03 05:09:09;;;;;;;;;;;;;;;;;;5036021;28;19945;-61
2021/01/03 05:11:35;;;;;;;;;;;;;;;;;;5036223;28;19917;-61
2021/01/03 05:14:01;;;;;;;;;;;;;;;;;;5036084;28;20459;-61
2021/01/03 05:16:27;;;;;;;;;;;;;;;;;;5035950;28;19905;-60
2021/01/03 05:18:53;;;;;;;;;;;;;;;;;;5036268;28;19976;-60
2021/01/03 05:21:19;;;;;;;;;;;;;;;;;;5035834;28;19934;-60
2021/01/03 05:23:45;;;;;;;;;;;;;;;;;;5035870;28;19940;-61
2021/01/03 05:26:11;;;;;;;;;;;;;;;;;;5036154;28;19952;-61
2021/01/03 05:28:37;;;;;;;;;;;;;;;;;;5035655;28;19952;-61
2021/01/03 05:31:02;;;;;;;;;;;;;;;;;;5035058;28;19909;-59
2021/01/03 05:33:28;;;;;;;;;;;;;;;;;;5035788;28;20280;-60
2021/01/03 05:35:54;;;;;;;;;;;;;;;;;;5035582;28;19961;-60
2021/01/03 05:38:20;;;;;;;;;;;;;;;;;;5035951;28;19920;-60
2021/01/03 05:40:46;;;;;;;;;;;;;;;;;;5035463;28;20443;-60
2021/01/03 05:43:12;;;;;;;;;;;;;;;;;;5035527;28;19932;-60
2021/01/03 05:45:38;;;;;;;;;;;;;;;;;;5035422;28;19967;-60
2021/01/03 05:48:04;;;;;;;;;;;;;;;;;;5035383;28;19939;-60
2021/01/03 05:50:30;;;;;;;;;;;;;;;;;;5035619;28;19919;-60
2021/01/03 05:52:56;;;;;;;;;;;;;;;;;;5035398;28;20289;-60
2021/01/03 05:55:22;;;;;;;;;;;;;;;;;;5034908;28;19971;-60
2021/01/03 05:57:48;;;;;;;;;;;;;;;;;;5035673;28;19921;-61
2021/01/03 06:00:14;;;;;;;;;;;;;;;;;;5034972;28;19909;-60
2021/01/03 06:02:40;;;;;;;;;;;;;;;;;;5035631;28;19925;-61
2021/01/03 06:05:06;;;;;;;;;;;;;;;;;;5035090;28;19911;-60
2021/01/03 06:07:32;;;;;;;;;;;;;;;;;;5034885;28;19926;-60
2021/01/03 06:09:58;;;;;;;;;;;;;;;;;;5035357;28;19966;-61
2021/01/03 06:12:24;;;;;;;;;;;;;;;;;;5034908;28;20424;-61
2021/01/03 06:14:50;;;;;;;;;;;;;;;;;;5034917;28;19940;-60
2021/01/03 06:17:16;;;;;;;;;;;;;;;;;;5035019;28;19958;-61
2021/01/03 06:19:42;;;;;;;;;;;;;;;;;;5035135;28;20402;-61
2021/01/03 06:22:08;;;;;;;;;;;;;;;;;;5034689;28;19928;-61
2021/01/03 06:24:34;;;;;;;;;;;;;;;;;;5034674;28;19937;-61
2021/01/03 06:27:00;;;;;;;;;;;;;;;;;;5034910;28;19924;-60
2021/01/03 06:29:26;;;;;;;;;;;;;;;;;;5034659;28;20281;-60
2021/01/03 06:31:52;;;;;;;;;;;;;;;;;;5034571;28;19918;-60
2021/01/03 06:34:18;;;;;;;;;;;;;;;;;;5034589;28;20298;-60
2021/01/03 06:36:44;;;;;;;;;;;;;;;;;;5034731;28;20051;-61
2021/01/03 06:39:10;;;;;;;;;;;;;;;;;;5034828;28;20354;-61
2021/01/03 06:41:36;;;;;;;;;;;;;;;;;;5033797;28;19925;-60
2021/01/03 06:44:02;;;;;;;;;;;;;;;;;;5034698;28;20240;-60
2021/01/03 06:46:28;;;;;;;;;;;;;;;;;;5034611;28;20283;-60
2021/01/03 06:48:54;;;;;;;;;;;;;;;;;;5034229;28;19955;-59
2021/01/03 06:51:20;;;;;;;;;;;;;;;;;;5034415;28;19905;-59
2021/01/03 06:53:46;;;;;;;;;;;;;;;;;;5032942;28;20353;-61
2021/01/03 06:56:12;;;;;;;;;;;;;;;;;;5034201;28;19946;-59
2021/01/03 06:58:38;;;;;;;;;;;;;;;;;;5033103;28;19909;-60
2021/01/03 07:01:04;;;;;;;;;;;;;;;;;;5032090;28;19912;-61
2021/01/03 07:03:30;;;;;;;;;;;;;;;;;;5034063;28;19933;-61
2021/01/03 07:05:56;;;;;;;;;;;;;;;;;;5034327;28;20299;-61
2021/01/03 07:08:22;;;;;;;;;;;;;;;;;;5034069;28;19970;-61
2021/01/03 07:10:47;;;;;;;;;;;;;;;;;;5034063;28;19959;-61
2021/01/03 07:13:13;;;;;;;;;;;;;;;;;;5034156;28;19921;-61
2021/01/03 07:15:39;;;;;;;;;;;;;;;;;;5033873;28;19973;-60
2021/01/03 07:18:06;;;;;;;;;;;;;;;;;;5033787;28;19919;-61
2021/01/03 07:20:32;;;;;;;;;;;;;;;;;;5033875;28;19968;-61
2021/01/03 07:22:57;;;;;;;;;;;;;;;;;;5030154;28;19942;-60
2021/01/03 07:25:23;;;;;;;;;;;;;;;;;;5014396;28;19927;-60
2021/01/03 07:27:49;;;;;;;;;;;;;;;;;;5013879;28;20435;-61
2021/01/03 07:30:15;;;;;;;;;;;;;;;;;;5014093;28;19939;-60
2021/01/03 07:32:42;;;;;;;;;;;;;;;;;;5014249;28;19918;-60
2021/01/03 07:35:08;;;;;;;;;;;;;;;;;;5014505;28;19920;-60
2021/01/03 07:37:34;;;;;;;;;;;;;;;;;;5013881;28;19941;-60
2021/01/03 07:40:00;;;;;;;;;;;;;;;;;;5014132;28;20012;-60
2021/01/03 07:42:26;;;;;;;;;;;;;;;;;;5013991;28;19987;-60
2021/01/03 07:44:52;;;;;;;;;;;;;;;;;;5014142;28;20333;-60
2021/01/03 07:47:18;;;;;;;;;;;;;;;;;;5013999;28;20285;-59
2021/01/03 07:49:44;;;;;;;;;;;;;;;;;;5014309;28;19946;-60
2021/01/03 07:52:10;;;;;;;;;;;;;;;;;;5014157;28;19948;-61
2021/01/03 07:54:36;;;;;;;;;;;;;;;;;;5017594;28;20492;-61
2021/01/03 07:57:02;;;;;;;;;;;;;;;;;;5017733;28;19948;-61
2021/01/03 07:59:28;;;;;;;;;;;;;;;;;;5017721;28;19916;-61
2021/01/03 08:01:54;;;;;;;;;;;;;;;;;;5017610;28;19945;-60
2021/01/03 08:04:20;;;;;;;;;;;;;;;;;;5017864;28;19967;-61
2021/01/03 08:06:46;;;;;;;;;;;;;;;;;;5017574;28;19927;-61
2021/01/03 08:09:12;;;;;;;;;;;;;;;;;;5017555;28;20096;-61
2021/01/03 08:11:38;;;;;;;;;;;;;;;;;;5017360;28;20269;-61
2021/01/03 08:14:04;;;;;;;;;;;;;;;;;;5017408;28;19920;-61
2021/01/03 08:16:30;;;;;;;;;;;;;;;;;;5017413;28;19920;-61
2021/01/03 08:18:58;;;;;;;;;;;;;;;;;;5017572;28;19997;-61
2021/01/03 08:21:23;;;;;;;;;;;;;;;;;;5017711;28;19922;-61
2021/01/03 08:23:50;;;;;;;;;;;;;;;;;;5017378;28;20044;-61
2021/01/03 08:26:16;;;;;;;;;;;;;;;;;;5023266;28;19923;-61
2021/01/03 08:28:42;;;;;;;;;;;;;;;;;;5033521;28;20381;-60
2021/01/03 08:31:08;;;;;;;;;;;;;;;;;;5017111;28;19965;-59
2021/01/03 08:33:34;;;;;;;;;;;;;;;;;;5034934;28;19926;-61
2021/01/03 08:35:59;;;;;;;;;;;;;;;;;;5036177;28;19922;-59
2021/01/03 08:38:25;;;;;;;;;;;;;;;;;;5035938;28;19909;-61
2021/01/03 08:40:51;;;;;;;;;;;;;;;;;;5036606;28;19919;-61
2021/01/03 08:43:17;;;;;;;;;;;;;;;;;;5036462;28;19992;-61
2021/01/03 08:45:43;;;;;;;;;;;;;;;;;;5036771;28;19920;-61
2021/01/03 08:48:09;;;;;;;;;;;;;;;;;;5036239;28;20417;-60
2021/01/03 08:50:35;;;;;;;;;;;;;;;;;;5036444;28;19917;-61
2021/01/03 08:53:01;;;;;;;;;;;;;;;;;;5036767;28;19919;-61
2021/01/03 08:55:27;;;;;;;;;;;;;;;;;;5036314;28;20344;-60
2021/01/03 08:57:53;;;;;;;;;;;;;;;;;;5036563;28;19919;-61
2021/01/03 09:00:19;;;;;;;;;;;;;;;;;;5036026;28;20369;-60
2021/01/03 09:02:45;;;;;;;;;;;;;;;;;;5036041;28;19920;-60
2021/01/03 09:05:11;;;;;;;;;;;;;;;;;;5035108;28;19921;-61
2021/01/03 09:07:37;;;;;;;;;;;;;;;;;;5036358;28;19922;-61
2021/01/03 09:10:03;;;;;;;;;;;;;;;;;;5036389;28;19913;-60
2021/01/03 09:12:29;;;;;;;;;;;;;;;;;;5036036;28;20285;-61
2021/01/03 09:14:55;;;;;;;;;;;;;;;;;;5035952;28;19965;-62
2021/01/03 09:17:21;;;;;;;;;;;;;;;;;;5036179;28;19905;-62
2021/01/03 09:19:47;;;;;;;;;;;;;;;;;;5035813;28;19915;-63
2021/01/03 09:22:13;;;;;;;;;;;;;;;;;;5036048;28;19924;-62
2021/01/03 09:24:39;;;;;;;;;;;;;;;;;;5036072;28;19952;-64
2021/01/03 09:27:05;;;;;;;;;;;;;;;;;;5035164;28;19965;-62
2021/01/03 09:29:31;;;;;;;;;;;;;;;;;;5021383;28;19985;-62
2021/01/03 09:31:57;;;;;;;;;;;;;;;;;;5031478;28;20035;-62
2021/01/03 09:34:23;;;;;;;;;;;;;;;;;;5026691;28;19974;-62
2021/01/03 09:36:49;;;;;;;;;;;;;;;;;;5015825;28;20015;-63
2021/01/03 09:39:15;;;;;;;;;;;;;;;;;;5024867;28;19972;-62
2021/01/03 09:41:41;;;;;;;;;;;;;;;;;;5031605;28;20408;-62
2021/01/03 09:44:07;;;;;;;;;;;;;;;;;;5015596;28;19918;-62
2021/01/03 09:46:33;;;;;;;;;;;;;;;;;;5015470;28;19931;-62
2021/01/03 09:48:59;;;;;;;;;;;;;;;;;;5015354;28;19985;-62
2021/01/03 09:51:24;;;;;;;;;;;;;;;;;;5015478;28;19963;-61
2021/01/03 09:53:50;;;;;;;;;;;;;;;;;;5015382;28;19916;-61
2021/01/03 09:56:16;;;;;;;;;;;;;;;;;;5015548;28;19975;-62
2021/01/03 09:58:42;;;;;;;;;;;;;;;;;;5021426;28;19951;-62
2021/01/03 10:01:08;;;;;;;;;;;;;;;;;;5035360;28;19921;-62
2021/01/03 10:03:34;;;;;;;;;;;;;;;;;;5035131;28;20378;-61
2021/01/03 10:06:00;;;;;;;;;;;;;;;;;;5035194;28;20006;-61
2021/01/03 10:08:26;;;;;;;;;;;;;;;;;;5034911;28;20095;-61
2021/01/03 10:10:52;;;;;;;;;;;;;;;;;;5035196;28;20364;-61
2021/01/03 10:13:18;;;;;;;;;;;;;;;;;;5035038;28;19944;-61
2021/01/03 10:15:49;;;;;;;;;;;;;;;;;;5034424;28;19928;-62
2021/01/03 10:18:15;;;;;;;;;;;;;;;;;;5035033;28;19918;-62
2021/01/03 10:20:41;;;;;;;;;;;;;;;;;;5034742;28;19922;-62
2021/01/03 10:23:07;;;;;;;;;;;;;;;;;;5034558;28;19969;-62
2021/01/03 10:25:33;;;;;;;;;;;;;;;;;;5034610;28;19923;-62
2021/01/03 10:27:59;;;;;;;;;;;;;;;;;;5034873;28;20493;-61
2021/01/03 10:30:25;;;;;;;;;;;;;;;;;;5034267;28;20329;-62
2021/01/03 10:32:52;;;;;;;;;;;;;;;;;;5034524;28;19912;-63
2021/01/03 10:35:18;;;;;;;;;;;;;;;;;;5034457;28;19920;-63
2021/01/03 10:37:44;;;;;;;;;;;;;;;;;;5031302;28;20029;-61
2021/01/03 10:40:10;;;;;;;;;;;;;;;;;;5014870;28;19952;-62
2021/01/03 10:42:36;;;;;;;;;;;;;;;;;;5014586;28;20027;-62
2021/01/03 10:45:02;;;;;;;;;;;;;;;;;;5014631;28;19930;-62
2021/01/03 10:47:28;;;;;;;;;;;;;;;;;;5014618;28;19925;-62
2021/01/03 10:49:54;;;;;;;;;;;;;;;;;;5014574;28;20448;-62
2021/01/03 10:52:20;;;;;;;;;;;;;;;;;;5014505;28;19928;-61
2021/01/03 10:54:46;;;;;;;;;;;;;;;;;;5014517;28;20011;-61
2021/01/03 10:57:12;;;;;;;;;;;;;;;;;;5014558;28;19912;-61
2021/01/03 10:59:38;;;;;;;;;;;;;;;;;;5014636;28;20292;-62
2021/01/03 11:02:04;;;;;;;;;;;;;;;;;;5014236;28;19933;-61
2021/01/03 11:04:30;;;;;;;;;;;;;;;;;;5014236;28;19920;-62
2021/01/03 11:06:56;;;;;;;;;;;;;;;;;;5014205;28;19991;-62
2021/01/03 11:09:22;;;;;;;;;;;;;;;;;;5014370;28;19991;-62
2021/01/03 11:11:48;;;;;;;;;;;;;;;;;;5022971;28;19945;-62
2021/01/03 11:14:14;;;;;;;;;;;;;;;;;;5033938;28;19946;-62
2021/01/03 11:16:40;;;;;;;;;;;;;;;;;;5033827;28;19905;-62
2021/01/03 11:19:05;;;;;;;;;;;;;;;;;;5034198;28;19919;-62
2021/01/03 11:21:31;;;;;;;;;;;;;;;;;;5033902;28;20373;-62
2021/01/03 11:23:57;;;;;;;;;;;;;;;;;;5033749;28;19936;-62
2021/01/03 11:26:23;;;;;;;;;;;;;;;;;;5033684;28;19921;-62
2021/01/03 11:28:49;;;;;;;;;;;;;;;;;;5033215;28;20043;-62
2021/01/03 11:31:15;;;;;;;;;;;;;;;;;;5033723;28;19924;-62
2021/01/03 11:33:41;;;;;;;;;;;;;;;;;;5033626;28;20337;-63
2021/01/03 11:36:07;;;;;;;;;;;;;;;;;;5034039;28;19991;-62
2021/01/03 11:38:33;;;;;;;;;;;;;;;;;;5033758;28;19930;-62
2021/01/03 11:40:59;;;;;;;;;;;;;;;;;;5033740;28;19964;-62
2021/01/03 11:43:25;;;;;;;;;;;;;;;;;;5032667;28;20023;-62
2021/01/03 11:45:51;;;;;;;;;;;;;;;;;;5033549;28;19918;-62
2021/01/03 11:48:17;;;;;;;;;;;;;;;;;;5033455;28;20326;-62
2021/01/03 11:50:43;;;;;;;;;;;;;;;;;;5033887;28;19930;-62
2021/01/03 11:53:09;;;;;;;;;;;;;;;;;;5032017;28;19922;-62
2021/01/03 11:55:35;;;;;;;;;;;;;;;;;;5013632;28;19961;-63
2021/01/03 11:58:01;;;;;;;;;;;;;;;;;;5013742;28;19926;-62
2021/01/03 12:00:27;;;;;;;;;;;;;;;;;;5018467;28;19949;-62
2021/01/03 12:02:53;;;;;;;;;;;;;;;;;;5017890;28;20398;-62
2021/01/03 12:05:19;;;;;;;;;;;;;;;;;;5013826;28;19906;-62
2021/01/03 12:07:45;;;;;;;;;;;;;;;;;;5013656;28;19963;-63
2021/01/03 12:10:11;;;;;;;;;;;;;;;;;;5013564;28;20316;-63
2021/01/03 12:12:37;;;;;;;;;;;;;;;;;;5019296;28;19916;-63
2021/01/03 12:15:03;;;;;;;;;;;;;;;;;;5033567;28;20332;-63
2021/01/03 12:17:29;;;;;;;;;;;;;;;;;;5033437;28;19925;-63
2021/01/03 12:19:55;;;;;;;;;;;;;;;;;;5033169;28;20349;-62
2021/01/03 12:22:21;;;;;;;;;;;;;;;;;;5033128;28;19927;-63
2021/01/03 12:24:47;;;;;;;;;;;;;;;;;;5031797;28;19985;-63
2021/01/03 12:27:12;;;;;;;;;;;;;;;;;;5033088;28;19953;-63
2021/01/03 12:29:38;;;;;;;;;;;;;;;;;;5032929;28;19977;-63
2021/01/03 12:32:04;;;;;;;;;;;;;;;;;;5031803;28;19991;-63
2021/01/03 12:34:30;;;;;;;;;;;;;;;;;;5032949;28;19919;-63
2021/01/03 12:36:56;;;;;;;;;;;;;;;;;;5033063;28;19917;-63
2021/01/03 12:39:22;;;;;;;;;;;;;;;;;;5035267;28;20014;-63
2021/01/03 12:41:50;;;;;;;;;;;;;;;;;;5030633;28;20277;-63
2021/01/03 12:44:16;;;;;;;;;;;;;;;;;;5016785;28;19916;-63
2021/01/03 12:46:42;;;;;;;;;;;;;;;;;;5017072;28;20281;-63
2021/01/03 12:49:08;;;;;;;;;;;;;;;;;;5016519;28;19947;-65
2021/01/03 12:51:34;;;;;;;;;;;;;;;;;;5016927;28;19921;-63
2021/01/03 12:54:00;;;;;;;;;;;;;;;;;;5016361;28;20329;-62
2021/01/03 12:56:26;;;;;;;;;;;;;;;;;;5016632;28;19924;-63
2021/01/03 12:58:52;;;;;;;;;;;;;;;;;;5016418;28;20296;-63
2021/01/03 13:01:18;;;;;;;;;;;;;;;;;;5024645;28;19927;-63
2021/01/03 13:03:44;;;;;;;;;;;;;;;;;;5026112;28;20020;-63
2021/01/03 13:06:12;;;;;;;;;;;;;;;;;;5024807;28;19931;-62
2021/01/03 13:08:38;;;;;;;;;;;;;;;;;;5035646;28;19944;-62
2021/01/03 13:11:04;;;;;;;;;;;;;;;;;;5027657;28;19922;-62
2021/01/03 13:13:30;;;;;;;;;;;;;;;;;;5034593;28;19964;-62
2021/01/03 13:15:56;;;;;;;;;;;;;;;;;;5035526;28;19966;-62
2021/01/03 13:18:22;;;;;;;;;;;;;;;;;;5035343;28;20385;-62
2021/01/03 13:20:48;;;;;;;;;;;;;;;;;;5033828;28;20016;-63
2021/01/03 13:23:14;;;;;;;;;;;;;;;;;;5035948;28;19933;-63
2021/01/03 13:25:40;;;;;;;;;;;;;;;;;;5017824;28;20376;-63
2021/01/03 13:28:06;;;;;;;;;;;;;;;;;;5016156;28;19988;-62
2021/01/03 13:30:32;;;;;;;;;;;;;;;;;;5016342;28;20318;-63
2021/01/03 13:32:58;;;;;;;;;;;;;;;;;;5016165;28;19945;-63
2021/01/03 13:35:24;;;;;;;;;;;;;;;;;;5016241;28;19927;-63
2021/01/03 13:37:50;;;;;;;;;;;;;;;;;;5018340;28;19918;-62
2021/01/03 13:40:16;;;;;;;;;;;;;;;;;;5035889;28;19920;-62
2021/01/03 13:42:42;;;;;;;;;;;;;;;;;;5035657;28;20408;-63
2021/01/03 13:45:08;;;;;;;;;;;;;;;;;;5035372;28;20011;-62
2021/01/03 13:47:34;;;;;;;;;;;;;;;;;;5035492;28;19963;-63
2021/01/03 13:50:00;;;;;;;;;;;;;;;;;;5034677;28;19952;-63
2021/01/03 13:52:26;;;;;;;;;;;;;;;;;;5034938;28;19921;-63
2021/01/03 13:54:52;;;;;;;;;;;;;;;;;;5030153;28;19917;-62
2021/01/03 13:57:18;;;;;;;;;;;;;;;;;;5016996;28;19943;-62
2021/01/03 13:59:44;;;;;;;;;;;;;;;;;;5015264;28;19978;-62
2021/01/03 14:02:10;;;;;;;;;;;;;;;;;;5027457;28;20042;-63
2021/01/03 14:04:36;;;;;;;;;;;;;;;;;;5015348;28;19921;-62
2021/01/03 14:07:02;;;;;;;;;;;;;;;;;;5015551;28;19977;-63
2021/01/03 14:09:28;;;;;;;;;;;;;;;;;;5014957;28;19954;-63
2021/01/03 14:11:54;;;;;;;;;;;;;;;;;;5015115;28;19948;-63
2021/01/03 14:14:20;;;;;;;;;;;;;;;;;;5015068;28;19960;-64
2021/01/03 14:16:46;;;;;;;;;;;;;;;;;;5015448;28;19920;-63
2021/01/03 14:19:12;;;;;;;;;;;;;;;;;;5014981;28;19921;-63
2021/01/03 14:21:38;;;;;;;;;;;;;;;;;;5015067;28;20015;-63
2021/01/03 14:24:04;;;;;;;;;;;;;;;;;;5015022;28;20046;-64
2021/01/03 14:26:30;;;;;;;;;;;;;;;;;;5015210;28;19927;-64
2021/01/03 14:28:56;;;;;;;;;;;;;;;;;;5014854;28;20316;-64
2021/01/03 14:31:22;;;;;;;;;;;;;;;;;;5014883;28;20068;-64
2021/01/03 14:33:47;;;;;;;;;;;;;;;;;;5014717;28;19921;-64
2021/01/03 14:36:13;;;;;;;;;;;;;;;;;;5015092;28;19926;-63
2021/01/03 14:38:39;;;;;;;;;;;;;;;;;;5015019;28;19945;-63
2021/01/03 14:41:05;;;;;;;;;;;;;;;;;;5016928;28;20357;-63
2021/01/03 14:43:31;;;;;;;;;;;;;;;;;;5014959;28;19927;-63
2021/01/03 14:45:57;;;;;;;;;;;;;;;;;;5014808;28;19912;-63
2021/01/03 14:48:23;;;;;;;;;;;;;;;;;;5022632;28;20308;-63
2021/01/03 14:50:49;;;;;;;;;;;;;;;;;;5034249;28;19927;-62
2021/01/03 14:53:15;;;;;;;;;;;;;;;;;;5030316;28;19922;-63
2021/01/03 14:55:41;;;;;;;;;;;;;;;;;;5033960;28;19965;-63
2021/01/03 14:58:07;;;;;;;;;;;;;;;;;;5030957;28;20366;-63
2021/01/03 15:00:33;;;;;;;;;;;;;;;;;;5017939;28;19967;-63
2021/01/03 15:02:59;;;;;;;;;;;;;;;;;;5029025;28;20414;-64
2021/01/03 15:05:25;;;;;;;;;;;;;;;;;;5015992;28;20071;-64
2021/01/03 15:07:51;;;;;;;;;;;;;;;;;;5025473;28;19934;-64
2021/01/03 15:10:17;;;;;;;;;;;;;;;;;;5014689;28;20395;-64
2021/01/03 15:12:43;;;;;;;;;;;;;;;;;;5021058;28;19932;-64
2021/01/03 15:15:09;;;;;;;;;;;;;;;;;;5033691;28;19918;-64
2021/01/03 15:17:35;;;;;;;;;;;;;;;;;;5033710;28;19918;-64
2021/01/03 15:20:01;;;;;;;;;;;;;;;;;;5033944;28;19924;-64
2021/01/03 15:22:27;;;;;;;;;;;;;;;;;;5028619;28;20268;-63
2021/01/03 15:24:53;;;;;;;;;;;;;;;;;;5027237;28;19927;-64
2021/01/03 15:27:19;;;;;;;;;;;;;;;;;;5023140;28;19921;-63
2021/01/03 15:29:45;;;;;;;;;;;;;;;;;;5022614;28;20304;-63
2021/01/03 15:32:11;;;;;;;;;;;;;;;;;;5033194;28;19951;-64
2021/01/03 15:34:37;;;;;;;;;;;;;;;;;;5031615;28;19929;-64
2021/01/03 15:37:03;;;;;;;;;;;;;;;;;;5024172;28;19925;-64
2021/01/03 15:39:29;;;;;;;;;;;;;;;;;;5033416;28;19959;-62
2021/01/03 15:41:55;;;;;;;;;;;;;;;;;;5032004;28;20376;-63
2021/01/03 15:44:21;;;;;;;;;;;;;;;;;;5023736;28;19928;-63
2021/01/03 15:46:47;;;;;;;;;;;;;;;;;;5024317;28;19928;-62
2021/01/03 15:49:13;;;;;;;;;;;;;;;;;;5027928;28;20356;-63
2021/01/03 15:51:39;;;;;;;;;;;;;;;;;;5033378;28;20003;-63
2021/01/03 15:54:05;;;;;;;;;;;;;;;;;;5033351;28;19952;-63
2021/01/03 15:56:32;;;;;;;;;;;;;;;;;;5033322;28;19945;-60
2021/01/03 15:58:58;;;;;;;;;;;;;;;;;;5033710;28;19929;-60
2021/01/03 16:01:24;;;;;;;;;;;;;;;;;;5026984;28;19926;-60
2021/01/03 16:03:50;;;;;;;;;;;;;;;;;;5031675;28;19968;-61
2021/01/03 16:06:16;;;;;;;;;;;;;;;;;;5020480;28;19927;-61
2021/01/03 16:08:42;;;;;;;;;;;;;;;;;;5013563;28;19948;-60
2021/01/03 16:11:08;;;;;;;;;;;;;;;;;;5013489;28;20414;-59
2021/01/03 16:13:34;;;;;;;;;;;;;;;;;;5028080;28;19926;-61
2021/01/03 16:16:00;;;;;;;;;;;;;;;;;;5037490;28;20311;-60
2021/01/03 16:18:26;;;;;;;;;;;;;;;;;;5037455;28;19952;-61
2021/01/03 16:20:52;;;;;;;;;;;;;;;;;;5037068;28;19926;-60
2021/01/03 16:23:18;;;;;;;;;;;;;;;;;;5036823;28;19936;-60
2021/01/03 16:25:44;;;;;;;;;;;;;;;;;;5036938;28;19950;-60
2021/01/03 16:28:10;;;;;;;;;;;;;;;;;;5036886;28;20002;-60
2021/01/03 16:30:36;;;;;;;;;;;;;;;;;;5036768;28;19909;-59
2021/01/03 16:33:02;;;;;;;;;;;;;;;;;;5036847;28;20011;-60
2021/01/03 16:35:28;;;;;;;;;;;;;;;;;;5037032;28;20265;-60